Time;durP1;ratioP1;P1;durP2;ratioP2;P2;SDS_P1;SDS_P2;PMS_P1;PMS_P2;Temp;Humidity;BMP_temperature;BMP_pressure;BME280_temperature;BME280_humidity;BME280_pressure;Samples;Min_cycle;Max_cycle;Signal;HPM_P1;HPM_P2
2022/12/09 00:00:23;;;;;;;145.25;30.55;;;;;;;-1.78;100.00;94806.47;1033306;28;20121;-66
2022/12/09 00:00:54;;;;;;;131.43;26.05;;;;;;;-1.80;100.00;94811.06;1032315;28;20423;-66
2022/12/09 00:01:24;;;;;;;139.43;27.98;;;;;;;-1.81;100.00;94806.91;1034077;28;20064;-66
2022/12/09 00:01:58;;;;;;;147.26;30.14;;;;;;;-1.79;100.00;94807.47;1035026;28;20417;-67
2022/12/09 00:02:28;;;;;;;135.43;29.73;;;;;;;-1.78;100.00;94806.47;1030735;28;20492;-67
2022/12/09 00:02:59;;;;;;;133.98;27.63;;;;;;;-1.78;100.00;94811.59;1035152;28;20018;-66
2022/12/09 00:03:29;;;;;;;146.45;29.55;;;;;;;-1.83;100.00;94806.31;1037755;28;20114;-69
2022/12/09 00:04:00;;;;;;;133.32;28.58;;;;;;;-1.84;100.00;94802.19;1030825;28;20110;-67
2022/12/09 00:04:30;;;;;;;122.13;30.75;;;;;;;-1.79;100.00;94809.25;1035140;28;20187;-66
2022/12/09 00:05:01;;;;;;;93.47;27.37;;;;;;;-1.75;100.00;94805.28;1028651;28;20548;-65
2022/12/09 00:05:38;;;;;;;130.18;30.10;;;;;;;-1.77;100.00;94802.91;1030827;28;20023;-65
2022/12/09 00:06:16;;;;;;;116.98;30.38;;;;;;;-1.74;100.00;94801.72;1038231;28;20021;-65
2022/12/09 00:06:49;;;;;;;140.88;28.04;;;;;;;-1.76;100.00;94804.50;1037306;28;20026;-66
2022/12/09 00:07:20;;;;;;;145.14;28.52;;;;;;;-1.80;100.00;94803.34;1034948;28;20430;-65
2022/12/09 00:07:50;;;;;;;123.70;30.45;;;;;;;-1.85;100.00;94789.53;1033518;28;20025;-65
2022/12/09 00:08:21;;;;;;;123.68;28.60;;;;;;;-1.82;100.00;94787.31;1034763;28;20842;-67
2022/12/09 00:08:52;;;;;;;137.40;29.30;;;;;;;-1.83;100.00;94798.59;1034900;28;20432;-66
2022/12/09 00:09:22;;;;;;;136.52;28.27;;;;;;;-1.93;100.00;94773.38;1032393;28;20030;-65
2022/12/09 00:09:53;;;;;;;154.05;29.92;;;;;;;-1.82;100.00;94789.88;1034423;28;20049;-65
2022/12/09 00:10:23;;;;;;;119.63;29.27;;;;;;;-1.78;100.00;94791.03;1038599;28;20061;-66
2022/12/09 00:10:54;;;;;;;138.13;29.25;;;;;;;-1.80;100.00;94790.47;1034287;28;20515;-66
2022/12/09 00:11:25;;;;;;;164.23;29.67;;;;;;;-1.82;100.00;94783.97;1034811;28;20057;-66
2022/12/09 00:11:55;;;;;;;148.48;27.83;;;;;;;-1.86;100.00;94783.59;1034409;28;20026;-67
2022/12/09 00:12:26;;;;;;;152.13;31.48;;;;;;;-1.84;100.00;94791.13;1034101;28;20021;-67
2022/12/09 00:12:56;;;;;;;105.82;29.40;;;;;;;-1.85;100.00;94785.16;1035005;28;20116;-65
2022/12/09 00:13:27;;;;;;;124.57;29.10;;;;;;;-1.82;100.00;94789.88;1030679;28;20105;-65
2022/12/09 00:13:58;;;;;;;116.95;29.48;;;;;;;-1.81;100.00;94791.50;1034657;28;20649;-66
2022/12/09 00:14:28;;;;;;;152.85;30.75;;;;;;;-1.82;100.00;94789.88;1032425;28;20051;-66
2022/12/09 00:14:59;;;;;;;138.45;28.52;;;;;;;-1.81;100.00;94793.25;1030785;28;20060;-67
2022/12/09 00:15:29;;;;;;;102.43;26.35;;;;;;;-1.78;100.00;94793.63;1030860;28;20061;-66
2022/12/09 00:16:05;;;;;;;131.27;29.13;;;;;;;-1.76;100.00;94794.22;1034849;28;20030;-66
2022/12/09 00:16:35;;;;;;;121.48;27.58;;;;;;;-1.72;100.00;94799.72;1030726;28;20487;-66
2022/12/09 00:17:06;;;;;;;103.45;29.08;;;;;;;-1.70;100.00;94795.94;1030168;28;20058;-66
2022/12/09 00:17:36;;;;;;;104.18;29.13;;;;;;;-1.69;100.00;94796.72;1039527;28;20466;-65
2022/12/09 00:18:08;;;;;;;85.65;29.75;;;;;;;-1.69;100.00;94797.50;1034730;28;20053;-66
2022/12/09 00:18:38;;;;;;;118.46;27.88;;;;;;;-1.68;100.00;94796.53;1034338;28;20100;-67
2022/12/09 00:19:09;;;;;;;113.75;28.70;;;;;;;-1.65;100.00;94797.88;1034750;28;20085;-67
2022/12/09 00:19:39;;;;;;;96.93;27.27;;;;;;;-1.62;100.00;94791.53;1030667;28;20036;-66
2022/12/09 00:20:10;;;;;;;98.07;29.00;;;;;;;-1.64;100.00;94798.66;1034513;28;20634;-66
2022/12/09 00:20:41;;;;;;;85.42;26.64;;;;;;;-1.60;100.00;94799.84;1034651;28;20026;-66
2022/12/09 00:21:17;;;;;;;105.95;27.80;;;;;;;-1.62;100.00;94794.09;1034881;28;20729;-66
2022/12/09 00:21:47;;;;;;;94.56;25.38;;;;;;;-1.75;100.00;94769.28;1035537;28;20026;-68
2022/12/09 00:22:18;;;;;;;99.85;27.98;;;;;;;-1.59;100.00;94779.03;1030905;28;20087;-67
2022/12/09 00:22:48;;;;;;;92.05;27.52;;;;;;;-1.72;100.00;94771.44;1037203;28;20057;-67
2022/12/09 00:23:19;;;;;;;91.88;27.92;;;;;;;-1.59;100.00;94783.41;1034473;28;20065;-69
2022/12/09 00:23:50;;;;;;;98.60;30.27;;;;;;;-1.74;100.00;94765.72;1034845;28;20128;-68
2022/12/09 00:24:21;;;;;;;94.18;28.72;;;;;;;-1.60;100.00;94781.84;1030491;28;20073;-65
2022/12/09 00:24:51;;;;;;;96.63;27.67;;;;;;;-1.60;100.00;94779.25;1033248;28;20033;-66
2022/12/09 00:25:22;;;;;;;95.97;29.08;;;;;;;-1.59;100.00;94789.34;1035935;28;20013;-66
2022/12/09 00:25:55;;;;;;;95.03;27.73;;;;;;;-1.58;100.00;94785.75;1038790;28;20049;-70
2022/12/09 00:26:26;;;;;;;92.74;26.38;;;;;;;-1.53;100.00;94787.72;1028993;28;20030;-69
2022/12/09 00:26:57;;;;;;;110.13;27.63;;;;;;;-1.53;100.00;94798.00;1035407;28;20116;-67
2022/12/09 00:27:27;;;;;;;85.28;26.85;;;;;;;-1.53;100.00;94796.22;1038564;28;20041;-66
2022/12/09 00:27:58;;;;;;;110.00;27.80;;;;;;;-1.54;100.00;94797.22;1038991;28;20021;-68
2022/12/09 00:28:28;;;;;;;121.07;27.92;;;;;;;-1.54;100.00;94799.78;1042838;28;20063;-67
2022/12/09 00:28:59;;;;;;;104.85;27.20;;;;;;;-1.53;100.00;94798.00;1046905;28;20021;-67
2022/12/09 00:29:29;;;;;;;96.07;27.52;;;;;;;-1.54;100.00;94792.06;1049796;28;20020;-71
2022/12/09 00:30:00;;;;;;;102.45;29.30;;;;;;;-1.50;100.00;94797.59;1049863;28;20089;-67
2022/12/09 00:30:30;;;;;;;115.43;29.15;;;;;;;-1.54;100.00;94794.66;1051062;28;20516;-69
2022/12/09 00:31:01;;;;;;;88.95;27.65;;;;;;;-1.50;100.00;94795.00;1049206;28;20442;-67
2022/12/09 00:31:35;;;;;;;74.28;26.88;;;;;;;-1.51;100.00;94796.00;1048110;28;20103;-68
2022/12/09 00:32:05;;;;;;;86.44;27.42;;;;;;;-1.50;100.00;94792.44;1045338;28;20497;-69
2022/12/09 00:32:36;;;;;;;77.45;27.38;;;;;;;-1.51;100.00;94790.84;1042006;28;20044;-68
2022/12/09 00:33:06;;;;;;;79.07;27.25;;;;;;;-1.49;100.00;94787.06;1042587;28;20430;-70
2022/12/09 00:33:37;;;;;;;74.28;26.05;;;;;;;-1.47;100.00;94786.88;1042297;28;20020;-67
2022/12/09 00:34:10;;;;;;;72.63;25.63;;;;;;;-1.49;100.00;94792.22;1045405;28;20021;-69
2022/12/09 00:34:41;;;;;;;129.00;28.42;;;;;;;-1.47;100.00;94781.72;1046508;28;20104;-67
2022/12/09 00:35:11;;;;;;;101.44;30.02;;;;;;;-1.48;100.00;94780.13;1043166;28;20102;-67
2022/12/09 00:35:42;;;;;;;84.80;28.25;;;;;;;-1.50;100.00;94774.44;1047047;28;20033;-68
2022/12/09 00:36:14;;;;;;;79.72;27.80;;;;;;;-1.47;100.00;94776.59;1046858;28;20031;-68
2022/12/09 00:36:44;;;;;;;80.78;25.64;;;;;;;-1.49;100.00;94776.00;1042881;28;20025;-69
2022/12/09 00:37:15;;;;;;;80.80;25.88;;;;;;;-1.47;100.00;94777.38;1046631;28;20541;-67
2022/12/09 00:37:45;;;;;;;77.13;25.33;;;;;;;-1.50;100.00;94769.28;1038570;28;20030;-68
2022/12/09 00:38:16;;;;;;;85.15;26.90;;;;;;;-1.48;100.00;94770.63;1037482;28;20594;-68
2022/12/09 00:38:46;;;;;;;86.68;27.63;;;;;;;-1.47;100.00;94768.88;1038503;28;20037;-68
2022/12/09 00:39:17;;;;;;;90.13;27.63;;;;;;;-1.49;100.00;94766.50;1030337;28;20053;-69
2022/12/09 00:39:47;;;;;;;83.43;27.60;;;;;;;-1.51;100.00;94765.94;1034429;28;20041;-66
2022/12/09 00:40:18;;;;;;;84.30;26.65;;;;;;;-1.49;100.00;94763.91;1035035;28;20117;-71
2022/12/09 00:40:48;;;;;;;71.90;27.30;;;;;;;-1.45;100.00;94764.28;1034761;28;20033;-67
2022/12/09 00:41:19;;;;;;;77.22;28.63;;;;;;;-1.45;100.00;94766.84;1039328;28;20021;-67
2022/12/09 00:41:50;;;;;;;75.20;26.38;;;;;;;-1.46;100.00;94766.06;1042746;28;20025;-69
2022/12/09 00:42:20;;;;;;;93.35;27.77;;;;;;;-1.50;100.00;94764.94;1038140;28;20021;-68
2022/12/09 00:42:51;;;;;;;84.97;27.17;;;;;;;-1.49;100.00;94768.28;1042925;28;20028;-68
2022/12/09 00:43:21;;;;;;;77.82;26.30;;;;;;;-1.48;100.00;94769.84;1046227;28;20024;-67
2022/12/09 00:43:52;;;;;;;85.82;27.10;;;;;;;-1.48;100.00;94762.13;1046776;28;20675;-67
2022/12/09 00:44:22;;;;;;;81.47;26.98;;;;;;;-1.45;100.00;94764.28;1046817;28;20048;-68
2022/12/09 00:44:53;;;;;;;67.78;26.08;;;;;;;-1.45;100.00;94770.22;1044282;28;20029;-70
2022/12/09 00:45:23;;;;;;;87.65;28.00;;;;;;;-1.55;100.00;94746.75;1042406;28;20033;-68
2022/12/09 00:45:54;;;;;;;85.90;26.85;;;;;;;-1.44;100.00;94765.88;1038748;28;20013;-66
2022/12/09 00:46:24;;;;;;;88.32;26.52;;;;;;;-1.42;100.00;94771.56;1038640;28;20056;-67
2022/12/09 00:46:55;;;;;;;132.32;30.67;;;;;;;-1.53;100.00;94770.50;1034813;28;20026;-67
2022/12/09 00:47:25;;;;;;;86.78;25.63;;;;;;;-1.46;100.00;94767.88;1037578;28;20052;-69
2022/12/09 00:47:56;;;;;;;98.38;26.20;;;;;;;-1.50;100.00;94772.66;1042952;28;20478;-66
2022/12/09 00:48:26;;;;;;;91.60;29.33;;;;;;;-1.52;100.00;94771.28;1041975;28;20036;-67
2022/12/09 00:48:57;;;;;;;151.20;30.15;;;;;;;-1.50;100.00;94771.88;1042762;28;20020;-67
2022/12/09 00:49:27;;;;;;;102.40;27.90;;;;;;;-1.51;100.00;94765.13;1042760;28;20029;-67
2022/12/09 00:49:58;;;;;;;102.13;27.98;;;;;;;-1.53;100.00;94770.50;1040543;28;20060;-67
2022/12/09 00:50:28;;;;;;;99.38;29.13;;;;;;;-1.51;100.00;94772.84;1047010;28;20020;-69
2022/12/09 00:50:59;;;;;;;137.32;28.80;;;;;;;-1.50;100.00;94769.28;1051214;28;20032;-67
2022/12/09 00:51:30;;;;;;;114.48;29.72;;;;;;;-1.52;100.00;94771.28;1050731;28;20036;-67
2022/12/09 00:52:00;;;;;;;96.03;25.95;;;;;;;-1.51;100.00;94770.25;1051509;28;20028;-67
2022/12/09 00:52:31;;;;;;;92.53;28.40;;;;;;;-1.46;100.00;94778.16;1050355;28;20594;-67
2022/12/09 00:53:01;;;;;;;92.57;28.52;;;;;;;-1.44;100.00;94773.59;1051184;28;20077;-68
2022/12/09 00:53:32;;;;;;;132.00;29.50;;;;;;;-1.45;100.00;94777.16;1051059;28;20020;-68
2022/12/09 00:54:02;;;;;;;111.60;27.52;;;;;;;-1.46;100.00;94778.16;1042947;28;20025;-68
2022/12/09 00:54:33;;;;;;;110.95;27.85;;;;;;;-1.45;100.00;94779.72;1046893;28;20020;-67
2022/12/09 00:55:04;;;;;;;84.07;27.50;;;;;;;-1.44;100.00;94776.94;1043040;28;20112;-68
2022/12/09 00:55:34;;;;;;;85.32;26.55;;;;;;;-1.43;100.00;94775.16;1038719;28;20152;-71
2022/12/09 00:56:05;;;;;;;94.07;27.55;;;;;;;-1.41;100.00;94773.16;1045462;28;20035;-67
2022/12/09 00:56:36;;;;;;;112.07;28.85;;;;;;;-1.40;100.00;94772.16;1042843;28;20082;-67
2022/12/09 00:57:06;;;;;;;76.32;26.30;;;;;;;-1.40;100.00;94772.16;1047222;28;20119;-67
2022/12/09 00:57:38;;;;;;;76.65;27.20;;;;;;;-1.37;100.00;94773.53;1050920;28;20059;-69
2022/12/09 00:58:09;;;;;;;80.24;26.70;;;;;;;-1.40;100.00;94764.44;1051232;28;20065;-69
2022/12/09 00:58:39;;;;;;;78.95;26.02;;;;;;;-1.39;100.00;94767.81;1046753;28;20055;-69
2022/12/09 00:59:10;;;;;;;84.82;26.83;;;;;;;-1.38;100.00;94774.50;1046946;28;20604;-66
2022/12/09 00:59:40;;;;;;;78.13;25.95;;;;;;;-1.42;100.00;94763.84;1038547;28;20029;-67
2022/12/09 01:00:11;;;;;;;91.43;29.25;;;;;;;-1.43;100.00;94773.38;1032941;28;20026;-67
2022/12/09 01:00:41;;;;;;;111.22;27.13;;;;;;;-1.46;100.00;94770.44;1042765;28;20029;-69
2022/12/09 01:01:12;;;;;;;117.85;27.92;;;;;;;-1.50;100.00;94766.72;1042804;28;20021;-68
2022/12/09 01:01:42;;;;;;;103.18;27.13;;;;;;;-1.51;100.00;94760.78;1046680;28;20506;-69
2022/12/09 01:02:13;;;;;;;132.10;28.02;;;;;;;-1.53;100.00;94767.13;1046094;28;20023;-67
2022/12/09 01:02:43;;;;;;;152.65;29.13;;;;;;;-1.59;100.00;94762.81;1045626;28;20020;-70
2022/12/09 01:03:14;;;;;;;211.68;32.47;;;;;;;-1.64;100.00;94765.22;1042833;28;20025;-68
2022/12/09 01:03:45;;;;;;;148.90;28.78;;;;;;;-1.68;100.00;94765.69;1038151;28;20025;-66
2022/12/09 01:04:16;;;;;;;113.93;29.55;;;;;;;-1.64;100.00;94754.94;1038228;28;20044;-69
2022/12/09 01:04:50;;;;;;;105.93;27.73;;;;;;;-1.63;100.00;94756.53;1038635;28;20200;-67
2022/12/09 01:05:20;;;;;;;133.04;30.06;;;;;;;-1.66;100.00;94750.81;1041592;28;20484;-67
2022/12/09 01:05:51;;;;;;;118.65;27.33;;;;;;;-1.70;100.00;94754.81;1038712;28;20029;-67
2022/12/09 01:06:22;;;;;;;121.18;29.23;;;;;;;-1.68;100.00;94746.88;1038551;28;20645;-72
2022/12/09 01:06:53;;;;;;;103.82;28.02;;;;;;;-1.64;100.00;94749.81;1031869;28;20062;-69
2022/12/09 01:07:23;;;;;;;96.20;28.52;;;;;;;-1.66;100.00;94753.38;1039125;28;20072;-66
2022/12/09 01:07:54;;;;;;;157.45;30.63;;;;;;;-1.64;100.00;94750.59;1046805;28;20497;-67
2022/12/09 01:08:24;;;;;;;124.13;29.88;;;;;;;-1.60;100.00;94750.97;1042614;28;20032;-67
2022/12/09 01:08:55;;;;;;;115.13;29.08;;;;;;;-1.59;100.00;94753.31;1047398;28;20036;-69
2022/12/09 01:09:25;;;;;;;102.40;27.88;;;;;;;-1.58;100.00;94746.38;1044976;28;20079;-67
2022/12/09 01:09:56;;;;;;;82.07;27.40;;;;;;;-1.54;100.00;94745.78;1042813;28;20017;-69
2022/12/09 01:10:26;;;;;;;111.75;29.35;;;;;;;-1.54;100.00;94750.91;1046757;28;20024;-67
2022/12/09 01:10:57;;;;;;;84.10;28.23;;;;;;;-1.52;100.00;94742.97;1046933;28;20040;-67
2022/12/09 01:11:27;;;;;;;91.95;29.63;;;;;;;-1.50;100.00;94746.91;1051134;28;20036;-68
2022/12/09 01:11:58;;;;;;;89.13;27.73;;;;;;;-1.48;100.00;94747.47;1050683;28;20020;-69
2022/12/09 01:12:28;;;;;;;77.32;27.92;;;;;;;-1.45;100.00;94743.69;1050158;28;20039;-67
2022/12/09 01:12:58;;;;;;;111.40;29.17;;;;;;;-1.47;100.00;94745.72;1046317;28;20505;-68
2022/12/09 01:13:29;;;;;;;111.95;29.13;;;;;;;-1.48;100.00;94742.34;1046651;28;20036;-67
2022/12/09 01:14:00;;;;;;;90.43;27.98;;;;;;;-1.47;100.00;94731.06;1047284;28;20383;-68
2022/12/09 01:14:33;;;;;;;89.50;27.98;;;;;;;-1.48;100.00;94731.25;1044486;28;20052;-68
2022/12/09 01:15:05;;;;;;;82.06;27.52;;;;;;;-1.45;100.00;94738.56;1050831;28;20028;-69
2022/12/09 01:15:36;;;;;;;81.90;27.36;;;;;;;-1.44;100.00;94733.22;1051119;28;20027;-68
2022/12/09 01:16:17;;;;;;;90.07;27.02;;;;;;;-1.40;100.00;94736.16;1039155;28;20033;-66
2022/12/09 01:16:48;;;;;;;87.52;28.06;;;;;;;-1.37;100.00;94729.81;1038864;28;20021;-71
2022/12/09 01:17:18;;;;;;;79.05;27.02;;;;;;;-1.40;100.00;94731.00;1038634;28;20030;-67
2022/12/09 01:17:49;;;;;;;85.32;28.10;;;;;;;-1.39;100.00;94732.56;1043476;28;20866;-66
2022/12/09 01:18:19;;;;;;;125.63;28.83;;;;;;;-1.43;100.00;94728.84;1051329;28;20016;-67
2022/12/09 01:18:54;;;;;;;79.57;27.25;;;;;;;-1.42;100.00;94728.63;1051118;28;20032;-67
2022/12/09 01:19:24;;;;;;;78.16;26.48;;;;;;;-1.39;100.00;94729.22;1050950;28;20032;-71
2022/12/09 01:19:55;;;;;;;99.95;28.02;;;;;;;-1.38;100.00;94728.97;1051151;28;20028;-66
2022/12/09 01:20:25;;;;;;;93.40;26.42;;;;;;;-1.42;100.00;94738.91;1050908;28;20024;-67
2022/12/09 01:20:59;;;;;;;128.23;29.05;;;;;;;-1.44;100.00;94729.84;1051145;28;20046;-66
2022/12/09 01:21:29;;;;;;;124.48;29.28;;;;;;;-1.43;100.00;94728.84;1051308;28;20891;-68
2022/12/09 01:22:00;;;;;;;89.18;25.42;;;;;;;-1.41;100.00;94734.56;1046800;28;20070;-65
2022/12/09 01:22:30;;;;;;;80.45;26.70;;;;;;;-1.38;100.00;94726.41;1046226;28;20036;-68
2022/12/09 01:23:01;;;;;;;82.28;27.75;;;;;;;-1.39;100.00;94732.56;1042250;28;20025;-66
2022/12/09 01:23:31;;;;;;;90.18;26.48;;;;;;;-1.46;100.00;94727.47;1037981;28;20069;-66
2022/12/09 01:24:05;;;;;;;85.35;27.90;;;;;;;-1.44;100.00;94730.63;1045203;28;20388;-66
2022/12/09 01:24:36;;;;;;;102.56;26.46;;;;;;;-1.48;100.00;94723.53;1042468;28;20510;-66
2022/12/09 01:25:06;;;;;;;85.90;26.15;;;;;;;-1.49;100.00;94727.91;1043483;28;20036;-70
2022/12/09 01:25:37;;;;;;;88.90;26.80;;;;;;;-1.51;100.00;94724.78;1046643;28;20084;-66
2022/12/09 01:26:08;;;;;;;74.47;25.35;;;;;;;-1.46;100.00;94729.28;1047101;28;20032;-66
2022/12/09 01:26:39;;;;;;;76.88;25.38;;;;;;;-1.47;100.00;94727.72;1051138;28;20470;-66
2022/12/09 01:27:10;;;;;;;88.42;23.86;;;;;;;-1.63;100.00;94711.03;1051319;28;20031;-67
2022/12/09 01:27:40;;;;;;;69.88;23.85;;;;;;;-1.57;100.00;94735.91;1047292;28;20044;-67
2022/12/09 01:28:10;;;;;;;73.10;24.98;;;;;;;-1.55;100.00;94733.88;1041424;28;20083;-66
2022/12/09 01:28:41;;;;;;;75.85;26.35;;;;;;;-1.50;100.00;94741.78;1039073;28;20060;-66
2022/12/09 01:29:11;;;;;;;74.03;25.38;;;;;;;-1.52;100.00;94742.97;1041628;28;20033;-67
2022/12/09 01:29:42;;;;;;;89.70;26.83;;;;;;;-1.53;100.00;94737.06;1039143;28;20044;-67
2022/12/09 01:30:12;;;;;;;85.72;25.50;;;;;;;-1.53;100.00;94741.41;1047323;28;20029;-67
2022/12/09 01:30:43;;;;;;;83.22;26.25;;;;;;;-1.52;100.00;94738.63;1051515;28;20032;-66
2022/12/09 01:31:15;;;;;;;74.88;26.64;;;;;;;-1.53;100.00;94731.13;1051408;28;20047;-66
2022/12/09 01:31:46;;;;;;;83.12;26.62;;;;;;;-1.58;100.00;94729.16;1051509;28;20041;-67
2022/12/09 01:32:16;;;;;;;82.68;26.48;;;;;;;-1.54;100.00;94729.53;1050342;28;20032;-68
2022/12/09 01:32:47;;;;;;;67.13;25.05;;;;;;;-1.53;100.00;94725.97;1051065;28;20024;-67
2022/12/09 01:33:17;;;;;;;84.50;25.17;;;;;;;-1.56;100.00;94722.03;1051322;28;20074;-65
2022/12/09 01:33:48;;;;;;;70.47;26.42;;;;;;;-1.52;100.00;94732.69;1051816;28;20044;-69
2022/12/09 01:34:18;;;;;;;90.28;25.55;;;;;;;-1.57;100.00;94730.75;1051807;28;20073;-69
2022/12/09 01:34:49;;;;;;;109.80;27.70;;;;;;;-1.60;100.00;94728.59;1051625;28;20031;-67
2022/12/09 01:35:19;;;;;;;102.10;25.90;;;;;;;-1.62;100.00;94730.59;1051201;28;20020;-67
2022/12/09 01:35:50;;;;;;;85.28;26.05;;;;;;;-1.63;100.00;94729.03;1051486;28;20035;-67
2022/12/09 01:36:22;;;;;;;112.03;25.50;;;;;;;-1.67;100.00;94726.09;1051703;28;20028;-69
2022/12/09 01:36:53;;;;;;;83.22;25.80;;;;;;;-1.63;100.00;94730.81;1047169;28;20795;-68
2022/12/09 01:37:23;;;;;;;135.02;27.52;;;;;;;-1.69;100.00;94727.31;1051315;28;20055;-66
2022/12/09 01:37:54;;;;;;;117.47;26.05;;;;;;;-1.68;100.00;94723.72;1046829;28;20024;-65
2022/12/09 01:38:24;;;;;;;94.93;26.58;;;;;;;-1.66;100.00;94727.66;1047442;28;20064;-67
2022/12/09 01:38:56;;;;;;;113.53;26.33;;;;;;;-1.68;100.00;94732.25;1051336;28;20054;-68
2022/12/09 01:39:26;;;;;;;85.70;27.54;;;;;;;-1.64;100.00;94724.91;1047400;28;20021;-67
2022/12/09 01:39:57;;;;;;;80.15;26.65;;;;;;;-1.62;100.00;94725.44;1051428;28;20445;-67
2022/12/09 01:40:27;;;;;;;91.57;27.70;;;;;;;-1.62;100.00;94728.03;1046855;28;20091;-67
2022/12/09 01:40:58;;;;;;;82.70;28.08;;;;;;;-1.58;100.00;94733.53;1047216;28;20048;-67
2022/12/09 01:41:28;;;;;;;104.63;28.58;;;;;;;-1.57;100.00;94735.13;1047326;28;20105;-66
2022/12/09 01:42:03;;;;;;;91.13;29.77;;;;;;;-1.60;100.00;94730.41;1047231;28;20020;-67
2022/12/09 01:42:33;;;;;;;98.02;28.84;;;;;;;-1.60;100.00;94726.03;1046595;28;20102;-66
2022/12/09 01:43:14;;;;;;;84.78;26.17;;;;;;;-1.57;100.00;94729.97;1043885;28;20033;-67
2022/12/09 01:43:44;;;;;;;86.84;27.96;;;;;;;-1.58;100.00;94724.03;1034800;28;20036;-67
2022/12/09 01:44:19;;;;;;;123.38;27.77;;;;;;;-1.59;100.00;94726.81;1032444;28;20010;-66
2022/12/09 01:45:20;;;;;;;82.66;27.16;;;;;;;-1.54;100.00;94734.66;1036953;28;20484;-66
2022/12/09 01:45:51;;;;;;;87.30;26.05;;;;;;;-1.61;100.00;94732.19;1051199;28;20170;-69
2022/12/09 01:46:21;;;;;;;102.05;24.80;;;;;;;-1.64;100.00;94727.47;1051958;28;20539;-66
2022/12/09 01:46:56;;;;;;;92.10;25.40;;;;;;;-1.63;100.00;94736.75;1051607;28;20031;-65
2022/12/09 01:47:26;;;;;;;93.10;27.52;;;;;;;-1.66;100.00;94737.94;1051447;28;20466;-66
2022/12/09 01:48:02;;;;;;;76.13;24.73;;;;;;;-1.67;100.00;94728.66;1051260;28;20032;-66
2022/12/09 01:48:38;;;;;;;80.88;26.08;;;;;;;-1.63;100.00;94734.16;1051529;28;20027;-68
2022/12/09 01:49:10;;;;;;;77.12;27.26;;;;;;;-1.63;100.00;94726.47;1051503;28;20032;-68
2022/12/09 01:49:41;;;;;;;74.12;26.42;;;;;;;-1.62;100.00;94722.09;1047381;28;20093;-67
2022/12/09 01:50:12;;;;;;;80.96;27.98;;;;;;;-1.62;100.00;94724.66;1042935;28;20037;-65
2022/12/09 01:50:46;;;;;;;87.57;27.60;;;;;;;-1.62;100.00;94716.94;1034722;28;20439;-66
2022/12/09 01:51:18;;;;;;;74.80;25.84;;;;;;;-1.62;100.00;94716.94;1032390;28;20026;-66
2022/12/09 01:51:57;;;;;;;70.84;26.36;;;;;;;-1.60;100.00;94713.19;1035468;28;20068;-66
2022/12/09 01:52:27;;;;;;;82.28;25.82;;;;;;;-1.61;100.00;94713.38;1037908;28;20100;-66
2022/12/09 01:52:58;;;;;;;67.15;26.20;;;;;;;-1.59;100.00;94716.53;1044660;28;20497;-66
2022/12/09 01:53:30;;;;;;;85.80;27.35;;;;;;;-1.59;100.00;94717.31;1048598;28;20017;-67
2022/12/09 01:54:01;;;;;;;79.26;27.32;;;;;;;-1.59;100.00;94716.53;1043308;28;20015;-66
2022/12/09 01:54:31;;;;;;;77.53;26.77;;;;;;;-1.60;100.00;94725.25;1043007;28;20028;-67
2022/12/09 01:55:02;;;;;;;69.32;26.90;;;;;;;-1.60;100.00;94731.19;1039191;28;20479;-65
2022/12/09 01:55:33;;;;;;;87.07;26.20;;;;;;;-1.60;100.00;94731.19;1035051;28;20034;-67
2022/12/09 01:56:09;;;;;;;85.72;26.27;;;;;;;-1.61;100.00;94734.75;1041175;28;20279;-67
2022/12/09 01:56:40;;;;;;;87.56;25.32;;;;;;;-1.68;100.00;94728.88;1048119;28;20012;-66
2022/12/09 01:57:10;;;;;;;80.38;26.20;;;;;;;-1.67;100.00;94728.66;1047756;28;20425;-67
2022/12/09 01:57:41;;;;;;;75.60;26.92;;;;;;;-1.68;100.00;94724.53;1047045;28;20016;-65
2022/12/09 01:58:11;;;;;;;83.25;26.23;;;;;;;-1.69;100.00;94720.38;1043167;28;20025;-67
2022/12/09 01:58:42;;;;;;;78.15;26.73;;;;;;;-1.66;100.00;94717.38;1043683;28;20825;-67
2022/12/09 01:59:13;;;;;;;79.03;26.48;;;;;;;-1.68;100.00;94716.81;1043497;28;20025;-68
2022/12/09 01:59:43;;;;;;;71.28;27.13;;;;;;;-1.63;100.00;94717.97;1047989;28;20062;-68
2022/12/09 02:00:14;;;;;;;82.88;27.50;;;;;;;-1.66;100.00;94714.81;1047271;28;20062;-66
2022/12/09 02:00:44;;;;;;;77.10;26.73;;;;;;;-1.64;100.00;94709.47;1043377;28;20112;-67
2022/12/09 02:01:15;;;;;;;78.30;26.13;;;;;;;-1.62;100.00;94709.25;1043100;28;20398;-66
2022/12/09 02:01:50;;;;;;;86.55;26.85;;;;;;;-1.66;100.00;94708.88;1043156;28;20682;-66
2022/12/09 02:02:20;;;;;;;80.80;26.34;;;;;;;-1.66;100.00;94708.88;1039155;28;20059;-66
2022/12/09 02:02:51;;;;;;;93.28;26.83;;;;;;;-1.69;100.00;94701.59;1039197;28;20593;-66
2022/12/09 02:03:21;;;;;;;76.13;25.55;;;;;;;-1.68;100.00;94703.97;1043050;28;20022;-68
2022/12/09 02:03:52;;;;;;;74.97;24.30;;;;;;;-1.70;100.00;94700.81;1039626;28;20577;-66
2022/12/09 02:04:22;;;;;;;103.10;27.30;;;;;;;-1.75;100.00;94692.91;1039184;28;20037;-67
2022/12/09 02:04:53;;;;;;;82.40;26.83;;;;;;;-1.76;100.00;94691.34;1043592;28;20024;-66
2022/12/09 02:05:23;;;;;;;89.88;26.48;;;;;;;-1.75;100.00;94697.28;1043314;28;20071;-65
2022/12/09 02:05:53;;;;;;;92.13;26.15;;;;;;;-1.71;100.00;94688.94;1047350;28;20020;-67
2022/12/09 02:06:24;;;;;;;105.03;27.58;;;;;;;-1.72;100.00;94697.63;1051233;28;20047;-67
2022/12/09 02:06:56;;;;;;;77.30;26.50;;;;;;;-1.71;100.00;94696.66;1051413;28;20020;-65
2022/12/09 02:07:27;;;;;;;78.04;25.10;;;;;;;-1.69;100.00;94692.06;1051831;28;20073;-68
2022/12/09 02:07:58;;;;;;;74.15;25.63;;;;;;;-1.68;100.00;94696.25;1047319;28;20071;-66
2022/12/09 02:08:28;;;;;;;78.28;25.16;;;;;;;-1.68;100.00;94692.84;1047314;28;20055;-66
2022/12/09 02:08:59;;;;;;;77.32;26.40;;;;;;;-1.62;100.00;94696.38;1047300;28;20505;-65
2022/12/09 02:09:29;;;;;;;73.57;25.92;;;;;;;-1.63;100.00;94694.81;1045603;28;20029;-71
2022/12/09 02:10:00;;;;;;;73.55;25.63;;;;;;;-1.59;100.00;94693.38;1039405;28;20029;-67
2022/12/09 02:10:30;;;;;;;84.28;26.05;;;;;;;-1.64;100.00;94693.22;1038881;28;20041;-67
2022/12/09 02:11:20;;;;;;;76.40;25.77;;;;;;;-1.59;100.00;94689.03;1030920;28;20026;-66
2022/12/09 02:12:05;;;;;;;80.40;26.00;;;;;;;-1.57;100.00;94686.25;1034774;28;20053;-67
2022/12/09 02:12:40;;;;;;;66.84;23.58;;;;;;;-1.56;100.00;94690.41;1039136;28;20030;-67
2022/12/09 02:13:18;;;;;;;83.20;25.54;;;;;;;-1.62;100.00;94693.81;1038928;28;20108;-64
2022/12/09 02:14:04;;;;;;;81.10;25.44;;;;;;;-1.56;100.00;94695.53;1046789;28;20024;-66
2022/12/09 02:15:01;;;;;;;85.00;26.08;;;;;;;-1.57;100.00;94693.97;1042402;28;20079;-67
2022/12/09 02:15:48;;;;;;;65.32;23.28;;;;;;;-1.58;100.00;94703.44;1047287;28;20545;-65
2022/12/09 02:16:21;;;;;;;78.32;24.80;;;;;;;-1.58;100.00;94694.94;1040427;28;20126;-65
2022/12/09 02:17:10;;;;;;;80.12;25.60;;;;;;;-1.64;100.00;94690.66;1038912;28;20825;-67
2022/12/09 02:17:43;;;;;;;64.66;22.98;;;;;;;-1.64;100.00;94678.59;1038990;28;20025;-68
2022/12/09 02:18:23;;;;;;;85.88;24.42;;;;;;;-1.73;100.00;94685.78;1042635;28;20066;-66
2022/12/09 02:19:34;;;;;;;71.28;24.30;;;;;;;-1.73;100.00;94682.44;1042909;28;20031;-66
2022/12/09 02:20:19;;;;;;;83.35;23.77;;;;;;;-1.89;100.00;94688.91;1030534;28;20026;-66
2022/12/09 02:20:54;;;;;;;71.28;22.68;;;;;;;-1.85;100.00;94687.47;1037129;28;20034;-67
2022/12/09 02:21:35;;;;;;;68.62;24.26;;;;;;;-1.86;100.00;94691.06;1042214;28;20510;-66
2022/12/09 02:22:05;;;;;;;79.18;23.13;;;;;;;-1.84;100.00;94694.22;1046814;28;20067;-68
2022/12/09 02:23:03;;;;;;;98.70;26.40;;;;;;;-1.94;100.00;94684.41;1046203;28;20214;-68
2022/12/09 02:23:37;;;;;;;113.74;24.60;;;;;;;-1.81;100.00;94701.50;1046917;28;20098;-67
2022/12/09 02:24:20;;;;;;;93.48;25.72;;;;;;;-1.84;100.00;94699.34;1051194;28;20024;-67
2022/12/09 02:25:10;;;;;;;79.10;23.54;;;;;;;-1.85;100.00;94695.19;1047514;28;20017;-66
2022/12/09 02:26:03;;;;;;;69.76;24.56;;;;;;;-1.77;100.00;94696.72;1047690;28;20056;-66